sim
Sign-in with your pilot id or email,
or register
Callsign
Passwort

Schedule Details

Flight Number: DLH2242
Departure: Munich Airport (EDDM) at 14:40
Arrival: Nantes Atlantique Airport (LFRS) at 16:35
Route: Lufthansa Passenger Schedule. Enter filed route here before submitting Pirep.

Weather Information
Getting current METAR information for EDDM 210720Z VRB01KT CAVOK 13/12 Q1017 BECMG 09005KT
Getting current METAR information for LFRS 210700Z AUTO VRB01KT 2600 BR OVC002 18/18 Q1016 TEMPO VV/// BECMG 9999 NSW

Schedule Frequency

Route Map